createdAt,value
2018-06-16T00:01:38.207Z,12.90
2018-06-16T00:04:08.411Z,12.80
2018-06-16T00:06:37.826Z,12.80
2018-06-16T00:09:09.448Z,12.80
2018-06-16T00:11:39.489Z,12.70
2018-06-16T00:14:09.538Z,12.70
2018-06-16T00:16:38.944Z,12.70
2018-06-16T00:19:09.583Z,12.70
2018-06-16T00:21:39.042Z,12.60
2018-06-16T00:24:08.386Z,12.60
2018-06-16T00:26:37.748Z,12.60
2018-06-16T00:29:07.899Z,12.60
2018-06-16T00:31:37.263Z,12.60
2018-06-16T00:34:06.707Z,12.50
2018-06-16T00:36:36.053Z,12.50
2018-06-16T00:39:08.870Z,12.50
2018-06-16T00:41:38.336Z,12.50
2018-06-16T00:44:07.875Z,12.40
2018-06-16T00:46:37.741Z,12.40
2018-06-16T00:49:07.336Z,12.40
2018-06-16T00:51:37.229Z,12.40
2018-06-16T00:54:06.832Z,12.30
2018-06-16T00:56:36.203Z,12.30
2018-06-16T00:59:05.537Z,12.30
2018-06-16T01:01:35.607Z,12.30
2018-06-16T01:04:04.968Z,12.20
2018-06-16T01:06:34.417Z,12.20
2018-06-16T01:09:04.412Z,12.20
2018-06-16T01:11:33.845Z,12.10
2018-06-16T01:14:03.344Z,12.10
2018-06-16T01:16:33.290Z,12.10
2018-06-16T01:19:02.737Z,12.10
2018-06-16T01:21:32.063Z,12.10
2018-06-16T01:24:01.390Z,12.00
2018-06-16T01:26:30.764Z,12.00
2018-06-16T01:28:59.864Z,12.00
2018-06-16T01:31:28.915Z,12.00
2018-06-16T01:33:58.262Z,11.90
2018-06-16T01:36:28.130Z,11.90
2018-06-16T01:38:57.632Z,11.90
2018-06-16T01:41:27.625Z,11.90
2018-06-16T01:43:57.949Z,11.80
2018-06-16T01:46:27.239Z,11.80
2018-06-16T01:48:56.609Z,11.80
2018-06-16T01:51:26.012Z,11.80
2018-06-16T01:53:55.591Z,11.80
2018-06-16T01:56:25.503Z,11.80
2018-06-16T01:58:54.896Z,11.70
2018-06-16T02:01:24.183Z,11.70
2018-06-16T02:03:53.998Z,11.70
2018-06-16T02:06:23.297Z,11.70
2018-06-16T02:08:52.781Z,11.70
2018-06-16T02:11:22.147Z,11.70
2018-06-16T02:13:52.473Z,11.70
2018-06-16T02:16:21.832Z,11.70
2018-06-16T02:18:52.008Z,11.70
2018-06-16T02:21:21.038Z,11.70
2018-06-16T02:23:50.453Z,11.70
2018-06-16T02:26:20.326Z,11.70
2018-06-16T02:28:49.744Z,11.70
2018-06-16T02:31:19.142Z,11.70
2018-06-16T02:33:48.538Z,11.70
2018-06-16T02:36:17.915Z,11.70
2018-06-16T02:38:47.835Z,11.70
2018-06-16T02:41:17.182Z,11.70
2018-06-16T02:43:46.517Z,11.60
2018-06-16T02:46:16.298Z,11.60
2018-06-16T02:48:45.616Z,11.60
2018-06-16T02:51:15.001Z,11.60
2018-06-16T02:53:44.334Z,11.50
2018-06-16T02:56:13.692Z,11.50
2018-06-16T02:58:43.067Z,11.50
2018-06-16T03:01:12.416Z,11.40
2018-06-16T03:03:41.822Z,11.40
2018-06-16T03:06:11.207Z,11.40
2018-06-16T03:08:40.727Z,11.40
2018-06-16T03:11:10.178Z,11.40
2018-06-16T03:13:39.759Z,11.40
2018-06-16T03:16:09.116Z,11.40
2018-06-16T03:18:38.509Z,11.40
2018-06-16T03:21:07.891Z,11.40
2018-06-16T03:23:37.341Z,11.40
2018-06-16T03:26:06.675Z,11.30
2018-06-16T03:28:36.073Z,11.30
2018-06-16T03:31:06.614Z,11.30
2018-06-16T03:33:36.802Z,11.30
2018-06-16T03:36:06.136Z,11.30
2018-06-16T03:38:35.513Z,11.20
2018-06-16T03:41:04.864Z,11.20
2018-06-16T03:43:34.832Z,11.20
2018-06-16T03:46:04.691Z,11.20
2018-06-16T03:48:34.149Z,11.20
2018-06-16T03:51:03.537Z,11.20
2018-06-16T03:53:32.882Z,11.20
2018-06-16T03:56:02.376Z,11.20
2018-06-16T03:58:31.836Z,11.20
2018-06-16T04:01:01.154Z,11.20
2018-06-16T04:03:31.046Z,11.20
2018-06-16T04:06:00.495Z,11.20
2018-06-16T04:08:29.831Z,11.30
2018-06-16T04:10:59.746Z,11.30
2018-06-16T04:13:29.843Z,11.30
2018-06-16T04:15:59.145Z,11.30
2018-06-16T04:18:28.244Z,11.40
2018-06-16T04:20:57.314Z,11.40
2018-06-16T04:23:27.379Z,11.40
2018-06-16T04:25:56.899Z,11.50
2018-06-16T04:28:26.243Z,11.50
2018-06-16T04:30:55.663Z,11.60
2018-06-16T04:33:25.025Z,11.60
2018-06-16T04:35:54.545Z,11.60
2018-06-16T04:38:24.071Z,11.70
2018-06-16T04:40:53.406Z,11.70
2018-06-16T04:43:22.752Z,11.80
2018-06-16T04:45:52.056Z,11.80
2018-06-16T04:48:21.426Z,11.90
2018-06-16T04:50:51.294Z,11.90
2018-06-16T04:53:20.620Z,12.00
2018-06-16T04:55:49.924Z,12.00
2018-06-16T04:58:19.335Z,12.10
2018-06-16T05:00:48.672Z,12.10
2018-06-16T05:03:18.213Z,12.20
2018-06-16T05:05:47.555Z,12.30
2018-06-16T05:08:17.011Z,12.40
2018-06-16T05:10:46.320Z,12.40
2018-06-16T05:13:15.762Z,12.50
2018-06-16T05:15:45.058Z,12.60
2018-06-16T05:18:14.485Z,12.70
2018-06-16T05:20:43.794Z,12.90
2018-06-16T05:23:13.090Z,12.90
2018-06-16T05:25:42.588Z,13.00
2018-06-16T05:28:12.382Z,13.10
2018-06-16T05:30:41.706Z,13.20
2018-06-16T05:33:11.245Z,13.30
2018-06-16T05:35:41.344Z,13.40
2018-06-16T05:38:11.309Z,13.50
2018-06-16T05:40:40.643Z,13.60
2018-06-16T05:43:09.969Z,13.70
2018-06-16T05:45:39.351Z,13.80
2018-06-16T05:48:08.787Z,13.90
2018-06-16T05:50:37.793Z,14.00
2018-06-16T05:53:07.189Z,14.10
2018-06-16T05:55:36.638Z,14.20
2018-06-16T05:58:05.996Z,14.30
2018-06-16T06:00:35.375Z,14.40
2018-06-16T06:03:04.832Z,14.50
2018-06-16T06:05:34.887Z,14.60
2018-06-16T06:08:04.227Z,14.70
2018-06-16T06:10:33.335Z,14.80
2018-06-16T06:13:02.689Z,14.90
2018-06-16T06:15:32.118Z,15.00
2018-06-16T06:18:01.554Z,15.10
2018-06-16T06:20:30.929Z,15.20
2018-06-16T06:23:00.293Z,15.30
2018-06-16T06:25:30.393Z,15.40
2018-06-16T06:27:59.909Z,15.50
2018-06-16T06:30:29.214Z,15.60
2018-06-16T06:32:58.658Z,15.70
2018-06-16T06:35:28.026Z,15.80
2018-06-16T06:37:57.920Z,15.90
2018-06-16T06:40:27.662Z,16.10
2018-06-16T06:42:57.154Z,16.20
2018-06-16T06:45:26.492Z,16.30
2018-06-16T06:47:56.051Z,16.40
2018-06-16T06:50:25.481Z,16.50
2018-06-16T06:52:55.219Z,16.60
2018-06-16T06:55:24.676Z,16.60
2018-06-16T06:57:54.145Z,16.70
2018-06-16T07:00:23.277Z,16.80
2018-06-16T07:02:53.029Z,16.90
2018-06-16T07:05:22.521Z,17.00
2018-06-16T07:07:51.989Z,17.10
2018-06-16T07:10:21.461Z,17.10
2018-06-16T07:12:50.822Z,17.20
2018-06-16T07:15:20.788Z,17.30
2018-06-16T07:17:50.210Z,17.40
2018-06-16T07:20:19.631Z,17.50
2018-06-16T07:22:49.049Z,17.60
2018-06-16T07:25:18.554Z,17.70
2018-06-16T07:27:47.905Z,17.80
2018-06-16T07:30:17.360Z,17.80
2018-06-16T07:32:46.811Z,17.90
2018-06-16T07:35:16.650Z,18.00
2018-06-16T07:37:46.008Z,18.00
2018-06-16T07:40:15.454Z,18.10
2018-06-16T07:42:44.983Z,18.10
2018-06-16T07:45:14.425Z,18.20
2018-06-16T07:47:43.798Z,18.20
2018-06-16T07:50:12.862Z,18.30
2018-06-16T07:52:42.542Z,18.40
2018-06-16T07:55:11.871Z,18.50
2018-06-16T07:57:41.369Z,18.60
2018-06-16T08:00:10.759Z,18.70
2018-06-16T08:02:40.133Z,18.70
2018-06-16T08:05:10.359Z,18.90
2018-06-16T08:07:40.429Z,19.00
2018-06-16T08:10:09.841Z,19.10
2018-06-16T08:12:39.262Z,19.10
2018-06-16T08:15:08.463Z,19.20
2018-06-16T08:17:37.851Z,19.30
2018-06-16T08:20:07.249Z,19.30
2018-06-16T08:22:36.632Z,19.40
2018-06-16T08:25:06.699Z,19.50
2018-06-16T08:27:41.088Z,19.50
2018-06-16T08:30:10.509Z,19.70
2018-06-16T08:32:40.254Z,19.80
2018-06-16T08:35:09.749Z,19.90
2018-06-16T08:37:39.858Z,20.00
2018-06-16T08:40:09.431Z,20.10
2018-06-16T08:42:39.404Z,20.20
2018-06-16T08:45:09.390Z,20.30
2018-06-16T08:47:38.933Z,20.50
2018-06-16T08:50:14.850Z,20.60
2018-06-16T08:52:44.861Z,20.80
2018-06-16T08:55:13.992Z,21.00
2018-06-16T08:57:43.432Z,21.20
2018-06-16T09:00:12.837Z,21.40
2018-06-16T09:02:43.681Z,21.60
2018-06-16T09:05:13.042Z,21.70
2018-06-16T09:07:43.242Z,21.90
2018-06-16T09:10:15.580Z,21.90
2018-06-16T09:12:45.654Z,22.00
2018-06-16T09:15:16.260Z,22.10
2018-06-16T09:17:45.899Z,22.20
2018-06-16T09:20:15.496Z,22.20
2018-06-16T09:22:45.108Z,22.30
2018-06-16T09:25:14.964Z,22.40
2018-06-16T09:27:45.420Z,22.50
2018-06-16T09:30:15.446Z,22.60
2018-06-16T09:32:45.152Z,22.70
2018-06-16T09:35:16.119Z,22.80
2018-06-16T09:37:45.935Z,22.90
2018-06-16T09:40:15.350Z,23.10
2018-06-16T09:42:45.491Z,23.30
2018-06-16T09:45:14.962Z,23.50
2018-06-16T09:47:44.310Z,23.60
2018-06-16T09:50:13.718Z,23.70
2018-06-16T09:52:42.828Z,23.90
2018-06-16T09:55:12.309Z,24.10
2018-06-16T09:57:42.039Z,24.20
2018-06-16T10:00:15.673Z,24.40
2018-06-16T10:02:45.441Z,24.50
2018-06-16T10:05:15.535Z,24.70
2018-06-16T10:07:44.869Z,24.80
2018-06-16T10:10:15.989Z,24.90
2018-06-16T10:12:45.498Z,25.00
2018-06-16T10:15:15.354Z,25.00
2018-06-16T10:17:44.706Z,25.10
2018-06-16T10:20:14.163Z,25.20
2018-06-16T10:22:43.590Z,25.30
2018-06-16T10:25:14.175Z,25.50
2018-06-16T10:27:43.573Z,25.60
2018-06-16T10:30:12.902Z,25.70
2018-06-16T10:32:42.274Z,25.80
2018-06-16T10:35:12.468Z,25.80
2018-06-16T10:37:42.007Z,25.90
2018-06-16T10:40:11.489Z,26.10
2018-06-16T10:42:40.960Z,26.20
2018-06-16T10:45:10.286Z,26.30
2018-06-16T10:47:39.723Z,26.30
2018-06-16T10:50:09.437Z,26.50
2018-06-16T10:52:40.301Z,26.60
2018-06-16T10:55:09.792Z,26.70
2018-06-16T10:57:40.347Z,26.70
2018-06-16T11:00:10.211Z,26.80
2018-06-16T11:02:39.789Z,26.80
2018-06-16T11:05:09.299Z,26.90
2018-06-16T11:07:39.757Z,26.90
2018-06-16T11:10:09.156Z,26.90
2018-06-16T11:12:38.909Z,27.00
2018-06-16T11:15:08.455Z,27.10
2018-06-16T11:17:37.924Z,27.10
2018-06-16T11:20:08.300Z,27.10
2018-06-16T11:22:38.177Z,27.20
2018-06-16T11:25:07.625Z,27.20
2018-06-16T11:27:37.133Z,27.10
2018-06-16T11:30:06.728Z,27.20
2018-06-16T11:32:36.324Z,27.30
2018-06-16T11:35:06.816Z,27.50
2018-06-16T11:37:36.506Z,27.80
2018-06-16T11:40:06.744Z,28.00
2018-06-16T11:42:37.149Z,28.30
2018-06-16T11:45:07.131Z,28.60
2018-06-16T11:47:37.315Z,28.80
2018-06-16T11:50:07.006Z,29.10
2018-06-16T11:52:36.598Z,29.40
2018-06-16T11:55:06.758Z,29.60
2018-06-16T11:57:36.192Z,29.70
2018-06-16T12:00:05.806Z,29.80
2018-06-16T12:02:35.374Z,30.00
2018-06-16T12:05:05.322Z,30.20
2018-06-16T12:07:34.762Z,30.40
2018-06-16T12:10:04.233Z,30.70
2018-06-16T12:12:33.584Z,30.90
2018-06-16T12:15:03.485Z,31.20
2018-06-16T12:17:33.071Z,31.70
2018-06-16T12:20:02.855Z,32.20
2018-06-16T12:22:32.647Z,32.90
2018-06-16T12:25:02.192Z,33.60
2018-06-16T12:27:31.692Z,34.30
2018-06-16T12:30:01.302Z,35.00
2018-06-16T12:32:31.052Z,35.50
2018-06-16T12:35:00.651Z,36.00
2018-06-16T12:37:30.319Z,36.10
2018-06-16T12:40:00.491Z,35.90
2018-06-16T12:42:29.915Z,35.60
2018-06-16T12:44:59.560Z,35.40
2018-06-16T12:47:28.939Z,35.10
2018-06-16T12:49:58.479Z,35.00
2018-06-16T12:52:27.937Z,34.90
2018-06-16T12:54:57.305Z,34.90
2018-06-16T12:57:27.090Z,34.80
2018-06-16T12:59:56.539Z,34.70
2018-06-16T13:02:25.861Z,34.70
2018-06-16T13:04:55.319Z,34.70
2018-06-16T13:07:24.658Z,34.80
2018-06-16T13:09:54.735Z,34.90
2018-06-16T13:12:24.128Z,34.90
2018-06-16T13:14:53.686Z,34.90
2018-06-16T13:17:23.158Z,34.90
2018-06-16T13:19:52.654Z,34.90
2018-06-16T13:22:22.188Z,34.90
2018-06-16T13:24:51.512Z,34.80
2018-06-16T13:27:21.099Z,34.70
2018-06-16T13:29:50.505Z,34.70
2018-06-16T13:32:20.732Z,34.70
2018-06-16T13:34:50.928Z,34.70
2018-06-16T13:37:20.435Z,34.80
2018-06-16T13:39:50.126Z,34.80
2018-06-16T13:42:19.720Z,34.90
2018-06-16T13:44:49.292Z,35.00
2018-06-16T13:47:19.109Z,35.00
2018-06-16T13:49:48.521Z,34.90
2018-06-16T13:52:18.320Z,34.90
2018-06-16T13:54:48.367Z,34.90
2018-06-16T13:57:17.793Z,35.00
2018-06-16T13:59:47.313Z,35.00
2018-06-16T14:02:16.737Z,35.00
2018-06-16T14:04:46.123Z,35.10
2018-06-16T14:07:15.463Z,35.10
2018-06-16T14:09:44.851Z,35.10
2018-06-16T14:12:14.217Z,35.20
2018-06-16T14:14:44.341Z,35.20
2018-06-16T14:17:13.672Z,35.30
2018-06-16T14:19:44.018Z,35.40
2018-06-16T14:22:13.264Z,35.40
2018-06-16T14:24:43.389Z,35.40
2018-06-16T14:27:12.842Z,35.40
2018-06-16T14:29:42.238Z,35.50
2018-06-16T14:32:11.794Z,35.50
2018-06-16T14:34:41.274Z,35.50
2018-06-16T14:37:10.600Z,35.60
2018-06-16T14:39:40.039Z,35.70
2018-06-16T14:42:09.646Z,35.70
2018-06-16T14:44:39.162Z,35.80
2018-06-16T14:47:08.559Z,35.90
2018-06-16T14:49:37.918Z,35.90
2018-06-16T14:52:07.334Z,36.10
2018-06-16T14:54:36.988Z,36.40
2018-06-16T14:57:06.645Z,36.70
2018-06-16T14:59:36.218Z,37.20
2018-06-16T15:02:05.851Z,37.70
2018-06-16T15:04:35.388Z,38.30
2018-06-16T15:07:05.379Z,38.90
2018-06-16T15:09:35.583Z,39.50
2018-06-16T15:12:05.031Z,40.10
2018-06-16T15:14:34.551Z,40.50
2018-06-16T15:17:04.031Z,40.90
2018-06-16T15:19:33.755Z,41.20
2018-06-16T15:22:03.277Z,41.50
2018-06-16T15:24:32.539Z,41.80
2018-06-16T15:27:01.916Z,42.00
2018-06-16T15:29:31.346Z,42.20
2018-06-16T15:32:00.695Z,42.40
2018-06-16T15:34:30.192Z,42.50
2018-06-16T15:37:00.372Z,42.50
2018-06-16T15:39:30.060Z,42.60
2018-06-16T15:41:59.598Z,42.50
2018-06-16T15:44:28.978Z,42.50
2018-06-16T15:46:58.336Z,42.40
2018-06-16T15:49:27.397Z,42.40
2018-06-16T15:51:56.731Z,42.40
2018-06-16T15:54:26.752Z,42.40
2018-06-16T15:56:56.126Z,42.30
2018-06-16T15:59:25.614Z,42.30
2018-06-16T16:01:54.994Z,42.20
2018-06-16T16:04:24.362Z,42.10
2018-06-16T16:06:53.724Z,42.00
2018-06-16T16:09:23.194Z,41.90
2018-06-16T16:11:53.376Z,41.80
2018-06-16T16:14:22.474Z,41.80
2018-06-16T16:16:52.216Z,41.60
2018-06-16T16:19:21.622Z,41.50
2018-06-16T16:21:51.461Z,41.40
2018-06-16T16:24:20.811Z,41.20
2018-06-16T16:26:50.220Z,41.00
2018-06-16T16:29:20.788Z,40.80
2018-06-16T16:31:50.389Z,40.60
2018-06-16T16:34:19.706Z,40.40
2018-06-16T16:36:49.120Z,40.10
2018-06-16T16:39:18.501Z,39.90
2018-06-16T16:41:49.019Z,39.70
2018-06-16T16:44:18.692Z,39.60
2018-06-16T16:46:48.090Z,39.40
2018-06-16T16:49:17.440Z,39.20
2018-06-16T16:51:46.806Z,38.90
2018-06-16T16:54:16.392Z,38.70
2018-06-16T16:56:47.199Z,38.60
2018-06-16T16:59:16.748Z,38.40
2018-06-16T17:01:47.140Z,38.30
2018-06-16T17:04:17.778Z,38.20
2018-06-16T17:06:47.332Z,38.10
2018-06-16T17:09:16.850Z,38.00
2018-06-16T17:11:46.158Z,37.80
2018-06-16T17:14:16.087Z,37.70
2018-06-16T17:16:45.800Z,37.60
2018-06-16T17:19:16.209Z,37.40
2018-06-16T17:21:46.955Z,37.20
2018-06-16T17:24:18.226Z,37.00
2018-06-16T17:26:47.640Z,36.70
2018-06-16T17:29:17.478Z,36.50
2018-06-16T17:31:46.983Z,36.30
2018-06-16T17:34:16.571Z,36.10
2018-06-16T17:36:46.240Z,35.80
2018-06-16T17:39:15.699Z,35.50
2018-06-16T17:41:45.192Z,35.30
2018-06-16T17:44:17.519Z,34.90
2018-06-16T17:46:46.940Z,34.60
2018-06-16T17:49:25.286Z,34.20
2018-06-16T17:51:55.001Z,33.80
2018-06-16T17:54:26.869Z,33.40
2018-06-16T17:56:56.257Z,32.90
2018-06-16T17:59:25.755Z,32.30
2018-06-16T18:01:55.376Z,31.80
2018-06-16T18:04:24.829Z,31.20
2018-06-16T18:06:54.347Z,30.70
2018-06-16T18:09:23.880Z,30.20
2018-06-16T18:11:53.437Z,29.80
2018-06-16T18:14:23.407Z,29.30
2018-06-16T18:16:53.701Z,28.80
2018-06-16T18:19:25.395Z,28.40
2018-06-16T18:21:56.161Z,28.00
2018-06-16T18:24:26.348Z,27.60
2018-06-16T18:26:56.022Z,27.30
2018-06-16T18:29:27.016Z,26.90
2018-06-16T18:31:56.476Z,26.60
2018-06-16T18:34:25.903Z,26.30
2018-06-16T18:36:55.772Z,26.10
2018-06-16T18:39:25.238Z,25.80
2018-06-16T18:41:54.799Z,25.60
2018-06-16T18:44:24.284Z,25.30
2018-06-16T18:46:55.476Z,25.00
2018-06-16T18:49:25.160Z,24.80
2018-06-16T18:51:54.542Z,24.60
2018-06-16T18:54:24.394Z,24.40
2018-06-16T18:56:54.690Z,24.10
2018-06-16T18:59:24.179Z,23.90
2018-06-16T19:01:53.546Z,23.70
2018-06-16T19:04:23.030Z,23.40
2018-06-16T19:06:52.529Z,23.20
2018-06-16T19:09:21.950Z,23.00
2018-06-16T19:11:51.395Z,22.70
2018-06-16T19:14:20.771Z,22.50
2018-06-16T19:16:50.180Z,22.30
2018-06-16T19:19:19.699Z,22.10
2018-06-16T19:21:49.149Z,21.90
2018-06-16T19:24:18.519Z,21.70
2018-06-16T19:26:47.955Z,21.60
2018-06-16T19:29:17.043Z,21.40
2018-06-16T19:31:46.070Z,21.30
2018-06-16T19:34:15.381Z,21.10
2018-06-16T19:36:44.830Z,21.00
2018-06-16T19:39:14.282Z,20.80
2018-06-16T19:41:43.590Z,20.70
2018-06-16T19:44:13.014Z,20.60
2018-06-16T19:46:42.457Z,20.40
2018-06-16T19:49:12.126Z,20.30
2018-06-16T19:51:41.636Z,20.20
2018-06-16T19:54:11.158Z,20.10
2018-06-16T19:56:40.504Z,19.90
2018-06-16T19:59:09.915Z,19.80
2018-06-16T20:01:39.553Z,19.70
2018-06-16T20:04:09.086Z,19.60
2018-06-16T20:06:38.508Z,19.50
2018-06-16T20:09:08.612Z,19.40
2018-06-16T20:11:38.846Z,19.40
2018-06-16T20:14:08.772Z,19.30
2018-06-16T20:16:38.290Z,19.20
2018-06-16T20:19:07.817Z,19.10
2018-06-16T20:21:38.322Z,19.00
2018-06-16T20:24:07.924Z,19.00
2018-06-16T20:26:37.607Z,18.90
2018-06-16T20:29:07.021Z,18.80
2018-06-16T20:31:37.154Z,18.70
2018-06-16T20:34:07.056Z,18.70
2018-06-16T20:36:36.785Z,18.60
2018-06-16T20:39:07.881Z,18.50
2018-06-16T20:41:37.759Z,18.40
2018-06-16T20:44:07.537Z,18.30
2018-06-16T20:46:37.497Z,18.30
2018-06-16T20:49:07.026Z,18.20
2018-06-16T20:51:36.463Z,18.10
2018-06-16T20:54:06.370Z,18.00
2018-06-16T20:56:36.179Z,18.00
2018-06-16T20:59:05.632Z,17.90
2018-06-16T21:01:35.160Z,17.80
2018-06-16T21:04:05.287Z,17.70
2018-06-16T21:06:34.784Z,17.70
2018-06-16T21:09:06.642Z,17.60
2018-06-16T21:11:36.877Z,17.50
2018-06-16T21:14:12.521Z,17.40
2018-06-16T21:16:41.974Z,17.40
2018-06-16T21:19:13.060Z,17.30
2018-06-16T21:21:42.548Z,17.20
2018-06-16T21:24:11.927Z,17.20
2018-06-16T21:26:41.868Z,17.10
2018-06-16T21:29:11.756Z,17.00
2018-06-16T21:31:40.760Z,17.00
2018-06-16T21:34:10.156Z,17.00
2018-06-16T21:36:39.562Z,16.90
2018-06-16T21:39:10.046Z,16.90
2018-06-16T21:41:39.674Z,16.80
2018-06-16T21:44:09.104Z,16.80
2018-06-16T21:46:38.520Z,16.80
2018-06-16T21:49:07.869Z,16.70
2018-06-16T21:51:37.380Z,16.70
2018-06-16T21:54:06.887Z,16.70
2018-06-16T21:56:36.259Z,16.60
2018-06-16T21:59:06.434Z,16.60
2018-06-16T22:01:37.010Z,16.50
2018-06-16T22:04:07.050Z,16.40
2018-06-16T22:06:36.121Z,16.40
2018-06-16T22:09:09.459Z,16.30
2018-06-16T22:11:38.894Z,16.30
2018-06-16T22:14:08.369Z,16.20
2018-06-16T22:16:37.727Z,16.20
2018-06-16T22:19:07.801Z,16.10
2018-06-16T22:21:37.222Z,16.10
2018-06-16T22:24:06.691Z,16.10
2018-06-16T22:26:36.179Z,16.10
2018-06-16T22:29:05.625Z,16.00
2018-06-16T22:31:34.979Z,16.00
2018-06-16T22:34:04.411Z,16.00
2018-06-16T22:36:33.874Z,15.90
2018-06-16T22:39:03.404Z,15.90
2018-06-16T22:41:32.821Z,15.90
2018-06-16T22:44:02.218Z,15.80
2018-06-16T22:46:31.570Z,15.80
2018-06-16T22:49:01.100Z,15.80
2018-06-16T22:51:30.450Z,15.70
2018-06-16T22:53:59.880Z,15.70
2018-06-16T22:56:29.196Z,15.70
2018-06-16T22:58:58.610Z,15.60
2018-06-16T23:01:27.989Z,15.60
2018-06-16T23:03:57.441Z,15.60
2018-06-16T23:06:26.787Z,15.50
2018-06-16T23:08:56.191Z,15.50
2018-06-16T23:11:25.539Z,15.50
2018-06-16T23:13:54.993Z,15.50
2018-06-16T23:16:24.392Z,15.40
2018-06-16T23:18:53.761Z,15.40
2018-06-16T23:21:23.092Z,15.30
2018-06-16T23:23:52.548Z,15.30
2018-06-16T23:26:21.908Z,15.30
2018-06-16T23:28:51.251Z,15.20
2018-06-16T23:31:20.635Z,15.20
2018-06-16T23:33:50.003Z,15.20
2018-06-16T23:36:19.507Z,15.20
2018-06-16T23:38:48.861Z,15.20
2018-06-16T23:41:18.355Z,15.20
2018-06-16T23:43:47.385Z,15.20
2018-06-16T23:46:16.773Z,15.20
2018-06-16T23:48:46.138Z,15.30
2018-06-16T23:51:15.953Z,15.30
2018-06-16T23:53:45.343Z,15.30
2018-06-16T23:56:14.677Z,15.30
2018-06-16T23:58:44.495Z,15.30
